Time;durP1;ratioP1;P1;durP2;ratioP2;P2;SDS_P1;SDS_P2;PMS_P1;PMS_P2;Temp;Humidity;BMP_temperature;BMP_pressure;BME280_temperature;BME280_humidity;BME280_pressure;Samples;Min_cycle;Max_cycle;Signal;HPM_P1;HPM_P2
2022/06/22 00:02:02;;;;;;;0.00;0.00;;;15.10;77.20;;;;;;5048872;28;20045;-70
2022/06/22 00:04:35;;;;;;;0.00;0.00;;;15.00;77.10;;;;;;5047586;28;20047;-70
2022/06/22 00:07:08;;;;;;;0.00;0.00;;;15.00;77.40;;;;;;5049295;28;20044;-70
2022/06/22 00:09:42;;;;;;;0.00;0.00;;;15.00;77.30;;;;;;5047462;28;20045;-69
2022/06/22 00:12:28;;;;;;;0.00;0.00;;;14.90;77.00;;;;;;5029020;28;20042;-70
2022/06/22 00:14:57;;;;;;;0.00;0.00;;;14.90;77.10;;;;;;5040102;28;20041;-67
2022/06/22 00:17:25;;;;;;;0.00;0.00;;;14.90;77.10;;;;;;5048793;28;20554;-67
2022/06/22 00:20:06;;;;;;;0.00;0.00;;;14.90;77.00;;;;;;5047928;28;20126;-68
2022/06/22 00:22:55;;;;;;;0.00;0.00;;;14.80;77.00;;;;;;5048555;28;20474;-68
2022/06/22 00:25:21;;;;;;;0.00;0.00;;;14.80;76.90;;;;;;5046372;28;20481;-67
2022/06/22 00:27:46;;;;;;;0.00;0.00;;;14.70;76.90;;;;;;5048325;28;20075;-69
2022/06/22 00:30:15;;;;;;;0.00;0.00;;;14.60;77.00;;;;;;5047505;28;20041;-69
2022/06/22 00:32:54;;;;;;;0.00;0.00;;;14.60;77.00;;;;;;5047970;28;20099;-69
2022/06/22 00:35:43;;;;;;;0.00;0.00;;;14.60;76.90;;;;;;5048563;28;20049;-69
2022/06/22 00:38:22;;;;;;;0.00;0.00;;;14.60;77.40;;;;;;5048305;28;20045;-69
2022/06/22 00:40:52;;;;;;;0.00;0.00;;;14.60;77.30;;;;;;5040772;28;20558;-69
2022/06/22 00:43:19;;;;;;;0.00;0.00;;;14.60;77.00;;;;;;5048578;28;20095;-68
2022/06/22 00:45:48;;;;;;;0.00;0.00;;;14.50;77.10;;;;;;5048211;28;20044;-68
2022/06/22 00:48:22;;;;;;;0.00;0.00;;;14.50;77.70;;;;;;5048275;28;20108;-68
2022/06/22 00:51:13;;;;;;;0.00;0.00;;;14.50;77.40;;;;;;5042128;28;20048;-68
2022/06/22 00:53:50;;;;;;;0.00;0.00;;;14.40;77.70;;;;;;5051591;28;20084;-68
2022/06/22 00:56:35;;;;;;;0.00;0.00;;;14.40;77.50;;;;;;5052588;28;20041;-69
2022/06/22 00:59:20;;;;;;;0.00;0.00;;;14.40;77.30;;;;;;5052166;28;20371;-69
2022/06/22 01:01:58;;;;;;;0.00;0.00;;;14.30;77.30;;;;;;5049608;28;20055;-69
2022/06/22 01:04:41;;;;;;;0.00;0.00;;;14.30;77.20;;;;;;5051859;28;20080;-68
2022/06/22 01:07:15;;;;;;;0.00;0.00;;;14.30;77.20;;;;;;5052336;28;20041;-69
2022/06/22 01:09:58;;;;;;;0.00;0.00;;;14.30;77.30;;;;;;5051425;28;20454;-69
2022/06/22 01:13:01;;;;;;;0.00;0.00;;;14.20;77.30;;;;;;5048322;28;20461;-68
2022/06/22 01:15:43;;;;;;;0.00;0.00;;;14.30;77.80;;;;;;5051964;28;20052;-69
2022/06/22 01:18:20;;;;;;;0.00;0.00;;;14.10;77.40;;;;;;5051889;28;20402;-68
2022/06/22 01:21:03;;;;;;;0.00;0.00;;;14.10;77.50;;;;;;5050488;28;20040;-68
2022/06/22 01:23:44;;;;;;;0.00;0.00;;;14.10;77.20;;;;;;5052211;28;20045;-69
2022/06/22 01:26:37;;;;;;;0.00;0.00;;;14.10;77.00;;;;;;5051894;28;20051;-69
2022/06/22 01:29:22;;;;;;;0.00;0.00;;;14.10;77.20;;;;;;5051589;28;20413;-68
2022/06/22 01:32:12;;;;;;;0.00;0.00;;;14.10;77.00;;;;;;5051264;28;20045;-68
2022/06/22 01:34:44;;;;;;;0.00;0.00;;;14.00;77.30;;;;;;5050536;28;20045;-69
2022/06/22 01:37:13;;;;;;;;;;;14.00;77.50;;;;;;5051945;28;20508;-69
2022/06/22 01:39:39;;;;;;;0.00;0.00;;;14.10;77.30;;;;;;5050643;28;19920;-68
2022/06/22 01:42:32;;;;;;;0.00;0.00;;;14.00;77.30;;;;;;5051378;28;20103;-68
2022/06/22 01:45:09;;;;;;;0.00;0.00;;;13.90;77.20;;;;;;5051641;28;20045;-68
2022/06/22 01:47:41;;;;;;;0.00;0.00;;;14.00;78.10;;;;;;5038341;28;20099;-69
2022/06/22 01:50:25;;;;;;;0.00;0.00;;;14.00;78.20;;;;;;5051334;28;20037;-69
2022/06/22 01:53:37;;;;;;;0.10;0.10;;;13.90;78.40;;;;;;5043086;28;20090;-68
2022/06/22 01:56:31;;;;;;;0.00;0.00;;;14.00;78.70;;;;;;5008948;28;20046;-68
2022/06/22 01:59:27;;;;;;;0.00;0.00;;;13.90;78.50;;;;;;5008676;28;20507;-69
2022/06/22 02:02:38;;;;;;;0.10;0.10;;;13.90;78.30;;;;;;5047220;28;20055;-68
2022/06/22 02:05:14;;;;;;;0.00;0.00;;;13.90;78.00;;;;;;5008460;28;20065;-69
2022/06/22 02:07:44;;;;;;;0.00;0.00;;;13.80;78.50;;;;;;5008336;28;20084;-69
2022/06/22 02:10:24;;;;;;;0.03;0.03;;;13.80;78.40;;;;;;5032357;28;20510;-68
2022/06/22 02:13:09;;;;;;;0.10;0.10;;;13.70;78.10;;;;;;5050534;28;20045;-68
2022/06/22 02:15:46;;;;;;;0.00;0.00;;;13.70;78.40;;;;;;5050895;28;20049;-69
2022/06/22 02:18:15;;;;;;;0.10;0.10;;;13.70;78.60;;;;;;5049894;28;20043;-69
2022/06/22 02:20:42;;;;;;;0.00;0.00;;;13.70;78.90;;;;;;5050405;28;20049;-69
2022/06/22 02:23:22;;;;;;;0.00;0.00;;;13.70;78.70;;;;;;5050452;28;20405;-68
2022/06/22 02:25:55;;;;;;;0.10;0.10;;;13.60;78.10;;;;;;5050090;28;20131;-69
2022/06/22 02:28:21;;;;;;;0.00;0.00;;;13.60;77.80;;;;;;5066282;28;20049;-69
2022/06/22 02:30:47;;;;;;;0.00;0.00;;;13.60;77.50;;;;;;5050030;28;20055;-68
2022/06/22 02:33:14;;;;;;;0.03;0.03;;;13.60;77.40;;;;;;5050343;28;20045;-69
2022/06/22 02:35:40;;;;;;;0.00;0.00;;;13.50;77.20;;;;;;5050462;28;20036;-68
2022/06/22 02:38:10;;;;;;;0.00;0.00;;;13.40;77.50;;;;;;5050196;28;20049;-69
2022/06/22 02:46:15;;;;;;;0.00;0.00;;;13.10;77.30;;;;;;5050546;28;20732;-68
2022/06/22 02:48:44;;;;;;;0.00;0.00;;;13.10;77.40;;;;;;5050209;28;20120;-68
2022/06/22 02:51:24;;;;;;;0.00;0.00;;;13.10;77.50;;;;;;5065472;28;20049;-68
2022/06/22 02:53:52;;;;;;;0.00;0.00;;;13.10;77.40;;;;;;5050055;28;20037;-68
2022/06/22 02:56:22;;;;;;;0.00;0.00;;;12.90;77.00;;;;;;5050211;28;20037;-68
2022/06/22 02:58:49;;;;;;;0.00;0.00;;;12.80;77.00;;;;;;5049800;28;20045;-69
2022/06/22 03:01:21;;;;;;;0.00;0.00;;;12.80;77.10;;;;;;5036576;28;20041;-68
2022/06/22 03:04:02;;;;;;;0.00;0.00;;;12.80;77.20;;;;;;5048876;28;20049;-69
2022/06/22 03:06:42;;;;;;;0.00;0.00;;;12.80;77.40;;;;;;5050209;28;20080;-69
2022/06/22 03:09:08;;;;;;;0.00;0.00;;;12.80;77.80;;;;;;5049247;28;20474;-68
2022/06/22 03:11:38;;;;;;;0.00;0.00;;;12.70;77.90;;;;;;5049315;28;20041;-68
2022/06/22 03:14:18;;;;;;;0.00;0.00;;;12.70;78.20;;;;;;5049424;28;20060;-68
2022/06/22 03:16:49;;;;;;;0.03;0.03;;;12.70;78.20;;;;;;5049076;28;20524;-68
2022/06/22 03:19:26;;;;;;;0.00;0.00;;;12.70;78.40;;;;;;5049211;28;20075;-69
2022/06/22 03:21:51;;;;;;;0.00;0.00;;;12.70;78.10;;;;;;5049335;28;20080;-69
2022/06/22 03:24:33;;;;;;;0.00;0.00;;;12.70;78.80;;;;;;5049661;28;20406;-68
2022/06/22 03:27:01;;;;;;;;;;;12.70;78.80;;;;;;5048429;28;20049;-68
2022/06/22 03:29:42;;;;;;;0.00;0.00;;;12.80;78.90;;;;;;5049620;28;20439;-68
2022/06/22 03:32:17;;;;;;;0.10;0.10;;;12.80;79.60;;;;;;5049328;28;20094;-68
2022/06/22 03:34:51;;;;;;;0.00;0.00;;;12.80;80.20;;;;;;5048830;28;20468;-68
2022/06/22 03:37:25;;;;;;;0.00;0.00;;;12.80;79.80;;;;;;5049084;28;20086;-68
2022/06/22 03:40:36;;;;;;;0.00;0.00;;;12.60;79.90;;;;;;5049008;28;20053;-68
2022/06/22 03:43:13;;;;;;;0.00;0.00;;;12.70;80.00;;;;;;5046172;28;20056;-69
2022/06/22 03:45:53;;;;;;;0.00;0.00;;;12.60;79.80;;;;;;5031900;28;20075;-68
2022/06/22 03:48:29;;;;;;;0.00;0.00;;;12.60;80.00;;;;;;5031821;28;20426;-68
2022/06/22 03:51:19;;;;;;;0.00;0.00;;;12.60;80.00;;;;;;5049083;28;20128;-68
2022/06/22 03:54:39;;;;;;;0.00;0.00;;;12.70;80.10;;;;;;5048623;28;20120;-68
2022/06/22 03:57:08;;;;;;;0.00;0.00;;;12.70;79.70;;;;;;5044665;28;20573;-68
2022/06/22 03:59:40;;;;;;;0.00;0.00;;;12.80;79.90;;;;;;5048980;28;20056;-68
2022/06/22 04:02:06;;;;;;;0.00;0.00;;;12.80;81.00;;;;;;5048009;28;20048;-68
2022/06/22 04:04:32;;;;;;;0.00;0.00;;;12.90;80.90;;;;;;5047172;28;20037;-68
2022/06/22 04:06:58;;;;;;;0.00;0.00;;;12.90;81.00;;;;;;5049139;28;20056;-68
2022/06/22 04:09:27;;;;;;;0.00;0.00;;;12.90;80.40;;;;;;5048963;28;20053;-68
2022/06/22 04:12:12;;;;;;;0.00;0.00;;;12.80;79.70;;;;;;5048281;28;20049;-68
2022/06/22 04:15:07;;;;;;;0.00;0.00;;;12.80;79.60;;;;;;5048256;28;20623;-68
2022/06/22 04:17:54;;;;;;;0.00;0.00;;;12.80;80.50;;;;;;5048479;28;20048;-68
2022/06/22 04:20:49;;;;;;;0.00;0.00;;;12.80;80.60;;;;;;5048871;28;20080;-68
2022/06/22 04:23:36;;;;;;;0.00;0.00;;;12.90;80.10;;;;;;5048449;28;20125;-68
2022/06/22 04:26:25;;;;;;;0.00;0.00;;;12.80;80.00;;;;;;5049196;28;20128;-68
2022/06/22 04:29:07;;;;;;;0.00;0.00;;;12.80;80.20;;;;;;5052505;28;20059;-68
2022/06/22 04:31:37;;;;;;;0.00;0.00;;;12.80;80.00;;;;;;5032589;28;20045;-68
2022/06/22 04:34:11;;;;;;;0.00;0.00;;;12.80;80.40;;;;;;5038779;28;20041;-69
2022/06/22 04:36:50;;;;;;;0.00;0.00;;;12.80;80.50;;;;;;5052426;28;20521;-68
2022/06/22 04:39:25;;;;;;;0.00;0.00;;;12.80;80.70;;;;;;5052488;28;20048;-68
2022/06/22 04:41:52;;;;;;;0.00;0.00;;;12.80;81.20;;;;;;5052409;28;20041;-68
2022/06/22 04:44:22;;;;;;;0.00;0.00;;;12.90;81.00;;;;;;5051833;28;20090;-68
2022/06/22 04:46:51;;;;;;;0.00;0.00;;;13.00;80.80;;;;;;5052732;28;20056;-69
2022/06/22 04:49:54;;;;;;;0.10;0.10;;;13.10;80.70;;;;;;5043601;28;20041;-70
2022/06/22 04:52:34;;;;;;;0.00;0.00;;;13.10;81.30;;;;;;5050533;28;20049;-71
2022/06/22 04:55:03;;;;;;;0.00;0.00;;;13.20;81.30;;;;;;5052532;28;20165;-70
2022/06/22 04:57:33;;;;;;;0.00;0.00;;;13.30;81.40;;;;;;5047228;28;20836;-70
2022/06/22 05:00:13;;;;;;;0.00;0.00;;;13.30;81.20;;;;;;5041087;28;20051;-71
2022/06/22 05:02:41;;;;;;;0.00;0.00;;;13.40;81.00;;;;;;5036281;28;20042;-70
2022/06/22 05:05:19;;;;;;;0.00;0.00;;;13.50;80.90;;;;;;5051009;28;20103;-70
2022/06/22 05:07:49;;;;;;;0.00;0.00;;;13.60;81.40;;;;;;5041833;28;20067;-70
2022/06/22 05:10:48;;;;;;;0.00;0.00;;;13.60;80.70;;;;;;5031827;28;20072;-70
2022/06/22 05:13:19;;;;;;;0.00;0.00;;;13.80;81.10;;;;;;5046238;28;20131;-70
2022/06/22 05:15:48;;;;;;;0.00;0.00;;;13.80;81.50;;;;;;5051494;28;20036;-70
2022/06/22 05:18:28;;;;;;;0.10;0.10;;;13.90;81.30;;;;;;5048972;28;20087;-70
2022/06/22 05:21:01;;;;;;;0.00;0.00;;;14.00;81.10;;;;;;5051445;28;20033;-71
2022/06/22 05:23:29;;;;;;;0.00;0.00;;;14.10;80.60;;;;;;5051192;28;20057;-71
2022/06/22 05:25:57;;;;;;;0.00;0.00;;;14.10;80.40;;;;;;5051119;28;20052;-71
2022/06/22 05:28:32;;;;;;;0.00;0.00;;;14.20;81.00;;;;;;5051284;28;20433;-71
2022/06/22 05:31:15;;;;;;;0.00;0.00;;;14.30;80.80;;;;;;5051032;28;20048;-71
2022/06/22 05:33:46;;;;;;;0.00;0.00;;;14.40;80.80;;;;;;5050352;28;20060;-71
2022/06/22 05:36:14;;;;;;;;;;;14.50;81.30;;;;;;5051588;28;20505;-72
2022/06/22 05:38:44;;;;;;;0.00;0.00;;;14.50;80.50;;;;;;5048955;28;19943;-71
2022/06/22 05:41:12;;;;;;;0.00;0.00;;;14.50;80.20;;;;;;5051110;28;20049;-71
2022/06/22 05:43:40;;;;;;;0.00;0.00;;;14.60;80.40;;;;;;5049160;28;20080;-72
2022/06/22 05:46:06;;;;;;;0.00;0.00;;;14.60;80.40;;;;;;5051463;28;20482;-71
2022/06/22 05:48:41;;;;;;;0.00;0.00;;;14.70;80.20;;;;;;5050836;28;20529;-71
2022/06/22 05:51:20;;;;;;;0.00;0.00;;;14.80;79.80;;;;;;5050779;28;20048;-71
2022/06/22 05:53:54;;;;;;;0.00;0.00;;;14.90;80.30;;;;;;5050951;28;20465;-71
2022/06/22 05:56:37;;;;;;;0.35;0.35;;;15.00;80.40;;;;;;5051331;28;20052;-72
2022/06/22 05:59:36;;;;;;;0.00;0.00;;;15.00;80.20;;;;;;5050751;28;20136;-69
2022/06/22 06:02:10;;;;;;;0.00;0.00;;;15.50;82.80;;;;;;5050531;28;20091;-70
2022/06/22 06:04:48;;;;;;;0.10;0.10;;;15.80;81.50;;;;;;5058095;28;20055;-74
2022/06/22 06:07:37;;;;;;;0.00;0.00;;;15.80;80.00;;;;;;5035410;28;20528;-74
2022/06/22 06:10:10;;;;;;;0.00;0.00;;;15.70;79.70;;;;;;5045587;28;20061;-74
2022/06/22 06:12:41;;;;;;;0.00;0.00;;;15.70;79.70;;;;;;5047327;28;20049;-70
2022/06/22 06:15:12;;;;;;;0.00;0.00;;;15.80;79.70;;;;;;5050469;28;20064;-69
2022/06/22 06:17:43;;;;;;;0.10;0.10;;;15.80;79.70;;;;;;5050242;28;20045;-70
2022/06/22 06:20:20;;;;;;;0.00;0.00;;;16.00;80.00;;;;;;5050312;28;20516;-70
2022/06/22 06:22:48;;;;;;;0.00;0.00;;;16.00;79.90;;;;;;5045828;28;20050;-70
2022/06/22 06:28:17;;;;;;;0.32;0.32;;;16.00;79.20;;;;;;5037928;28;20049;-71
2022/06/22 06:30:47;;;;;;;0.00;0.00;;;16.00;79.40;;;;;;5048475;28;20044;-71
2022/06/22 06:33:31;;;;;;;0.00;0.00;;;16.10;79.10;;;;;;5047852;28;20158;-71
2022/06/22 06:36:25;;;;;;;0.08;0.08;;;16.10;79.20;;;;;;5046592;28;20045;-71
2022/06/22 06:38:59;;;;;;;0.00;0.00;;;16.10;79.40;;;;;;5050521;28;20049;-70
2022/06/22 06:41:40;;;;;;;0.00;0.00;;;16.20;79.50;;;;;;5050052;28;20047;-69
2022/06/22 06:44:18;;;;;;;0.00;0.00;;;16.30;79.40;;;;;;5043541;28;20091;-69
2022/06/22 06:46:53;;;;;;;0.00;0.00;;;16.40;79.00;;;;;;5047643;28;20858;-69
2022/06/22 06:49:28;;;;;;;0.00;0.00;;;16.40;78.80;;;;;;5044105;28;20044;-69
2022/06/22 06:52:01;;;;;;;0.00;0.00;;;16.40;78.80;;;;;;5047478;28;20051;-69
2022/06/22 06:54:34;;;;;;;0.00;0.00;;;16.50;78.50;;;;;;5044642;28;20036;-69
2022/06/22 06:57:14;;;;;;;0.00;0.00;;;16.60;78.30;;;;;;5045155;28;20057;-69
2022/06/22 06:59:41;;;;;;;0.00;0.00;;;16.60;78.00;;;;;;5046800;28;20049;-69
2022/06/22 07:02:28;;;;;;;0.00;0.00;;;16.60;78.00;;;;;;5047143;28;20040;-68
2022/06/22 07:04:57;;;;;;;0.00;0.00;;;16.70;77.70;;;;;;5045903;28;20037;-69
2022/06/22 07:07:52;;;;;;;0.00;0.00;;;16.70;77.40;;;;;;5045837;28;20115;-68
2022/06/22 07:10:23;;;;;;;0.00;0.00;;;16.80;77.10;;;;;;5044430;28;20056;-69
2022/06/22 07:12:56;;;;;;;0.00;0.00;;;16.80;76.80;;;;;;5047411;28;20040;-69
2022/06/22 07:15:26;;;;;;;0.00;0.00;;;16.80;76.10;;;;;;5047926;28;20056;-69
2022/06/22 07:17:55;;;;;;;0.00;0.00;;;16.80;76.00;;;;;;5046997;28;20053;-69
2022/06/22 07:20:37;;;;;;;0.00;0.00;;;16.90;76.00;;;;;;5046003;28;20103;-70
2022/06/22 07:23:12;;;;;;;0.00;0.00;;;16.90;75.80;;;;;;5046479;28;20037;-69
2022/06/22 07:25:48;;;;;;;0.00;0.00;;;17.00;75.70;;;;;;5046098;28;20477;-69
2022/06/22 07:28:28;;;;;;;0.00;0.00;;;17.00;75.60;;;;;;5046306;28;20041;-70
2022/06/22 07:31:04;;;;;;;0.00;0.00;;;17.00;75.80;;;;;;5044223;28;20048;-70
2022/06/22 07:33:41;;;;;;;0.00;0.00;;;17.10;75.30;;;;;;5046176;28;20047;-69
2022/06/22 07:36:16;;;;;;;0.00;0.00;;;17.10;75.30;;;;;;5046228;28;20114;-70
2022/06/22 07:38:45;;;;;;;0.00;0.00;;;17.10;75.30;;;;;;5045600;28;21276;-69
2022/06/22 07:41:19;;;;;;;0.00;0.00;;;17.10;75.30;;;;;;5046043;28;20055;-70
2022/06/22 07:43:46;;;;;;;0.00;0.00;;;17.20;74.80;;;;;;5046235;28;20045;-69
2022/06/22 07:46:20;;;;;;;0.00;0.00;;;17.20;74.70;;;;;;5046199;28;20049;-70
2022/06/22 07:48:48;;;;;;;0.00;0.00;;;17.20;74.20;;;;;;5045588;28;20182;-68
2022/06/22 07:51:23;;;;;;;0.00;0.00;;;17.20;73.70;;;;;;5046644;28;20056;-70
2022/06/22 07:54:10;;;;;;;0.00;0.00;;;17.30;73.30;;;;;;5045108;28;20512;-71
2022/06/22 07:56:52;;;;;;;0.00;0.00;;;17.30;73.20;;;;;;5044917;28;20099;-71
2022/06/22 07:59:23;;;;;;;0.00;0.00;;;17.30;72.90;;;;;;5045982;28;20080;-71
2022/06/22 08:01:50;;;;;;;0.00;0.00;;;17.40;73.00;;;;;;5044372;28;20547;-70
2022/06/22 08:04:25;;;;;;;0.00;0.00;;;17.40;72.00;;;;;;5044455;28;20041;-70
2022/06/22 08:07:08;;;;;;;0.00;0.00;;;17.50;71.60;;;;;;5045437;28;20042;-69
2022/06/22 08:09:58;;;;;;;0.00;0.00;;;17.50;72.00;;;;;;5043543;28;20127;-70
2022/06/22 08:12:36;;;;;;;0.00;0.00;;;17.60;71.70;;;;;;5045425;28;20049;-70
2022/06/22 08:15:12;;;;;;;0.00;0.00;;;17.60;71.70;;;;;;5046208;28;20460;-69
2022/06/22 08:17:42;;;;;;;0.00;0.00;;;17.70;71.40;;;;;;5045540;28;20082;-70
2022/06/22 08:20:11;;;;;;;0.00;0.00;;;17.80;71.10;;;;;;5043261;28;20060;-69
2022/06/22 08:22:37;;;;;;;0.00;0.00;;;17.80;70.80;;;;;;5043429;28;20044;-69
2022/06/22 08:25:04;;;;;;;0.00;0.00;;;17.90;71.00;;;;;;5046165;28;20041;-69
2022/06/22 08:27:30;;;;;;;0.00;0.00;;;17.90;70.00;;;;;;5045076;28;20048;-70
2022/06/22 08:29:57;;;;;;;0.00;0.00;;;17.90;69.20;;;;;;5044391;28;20042;-68
2022/06/22 08:32:30;;;;;;;0.20;0.20;;;17.90;69.10;;;;;;5046005;28;20056;-68
2022/06/22 08:35:16;;;;;;;0.20;0.20;;;17.90;69.20;;;;;;5042620;28;20060;-68
2022/06/22 08:37:51;;;;;;;0.00;0.00;;;18.00;69.10;;;;;;5045896;28;20048;-70
2022/06/22 08:40:37;;;;;;;0.00;0.00;;;18.10;68.90;;;;;;5044539;28;20490;-68
2022/06/22 08:43:05;;;;;;;0.00;0.00;;;18.10;69.00;;;;;;5044045;28;20045;-68
2022/06/22 08:46:10;;;;;;;0.00;0.00;;;18.20;69.00;;;;;;5037295;28;20045;-68
2022/06/22 08:49:03;;;;;;;0.00;0.00;;;18.20;69.00;;;;;;5045673;28;20052;-68
2022/06/22 08:51:54;;;;;;;0.00;0.00;;;18.30;68.40;;;;;;5047645;28;20672;-68
2022/06/22 08:54:23;;;;;;;0.28;0.28;;;18.30;68.00;;;;;;5045121;28;20123;-69
2022/06/22 08:57:03;;;;;;;0.00;0.00;;;18.40;67.10;;;;;;5046806;28;20045;-69
2022/06/22 09:00:05;;;;;;;0.00;0.00;;;18.40;66.30;;;;;;5039696;28;20361;-69
2022/06/22 09:02:57;;;;;;;0.00;0.00;;;18.50;66.80;;;;;;5046547;28;20295;-69
2022/06/22 09:06:00;;;;;;;0.10;0.10;;;18.50;66.40;;;;;;5047908;28;20052;-69
2022/06/22 09:09:00;;;;;;;0.10;0.10;;;18.50;65.90;;;;;;5047841;28;20075;-70
2022/06/22 09:11:43;;;;;;;0.00;0.00;;;18.60;65.60;;;;;;5046429;28;20048;-69
2022/06/22 09:14:22;;;;;;;0.10;0.10;;;18.60;64.90;;;;;;5039847;28;20833;-69
2022/06/22 09:17:10;;;;;;;0.00;0.00;;;18.70;65.10;;;;;;5039494;28;20049;-68
2022/06/22 09:19:50;;;;;;;0.00;0.00;;;18.80;63.90;;;;;;5019807;28;20041;-69
2022/06/22 09:22:33;;;;;;;0.00;0.00;;;18.90;64.20;;;;;;5013120;28;20064;-70
2022/06/22 09:25:11;;;;;;;0.00;0.00;;;19.00;64.40;;;;;;5039443;28;20103;-69
2022/06/22 09:28:09;;;;;;;0.00;0.00;;;19.00;64.00;;;;;;5037671;28;20053;-69
2022/06/22 09:31:14;;;;;;;0.13;0.13;;;19.00;61.70;;;;;;5039760;28;20049;-65
2022/06/22 09:33:58;;;;;;;0.00;0.00;;;19.10;63.40;;;;;;5050491;28;20076;-69
2022/06/22 09:36:49;;;;;;;0.00;0.00;;;19.20;62.90;;;;;;5044070;28;20048;-69
2022/06/22 09:39:21;;;;;;;0.00;0.00;;;19.30;59.70;;;;;;5049859;28;20436;-71
2022/06/22 09:41:53;;;;;;;;;;;19.30;60.80;;;;;;5050065;28;20621;-69
2022/06/22 09:44:48;;;;;;;0.00;0.00;;;19.30;62.70;;;;;;5040182;28;19982;-67
2022/06/22 09:47:35;;;;;;;0.00;0.00;;;19.40;61.40;;;;;;5051004;28;20387;-68
2022/06/22 09:50:28;;;;;;;0.00;0.00;;;19.40;61.90;;;;;;5049833;28;20049;-69
2022/06/22 09:53:02;;;;;;;0.20;0.15;;;19.50;62.20;;;;;;5044380;28;20033;-69
2022/06/22 09:59:13;;;;;;;0.00;0.00;;;19.70;63.20;;;;;;5051391;28;20091;-70
2022/06/22 10:01:42;;;;;;;0.00;0.00;;;19.80;62.50;;;;;;5046333;28;20045;-66
2022/06/22 10:04:44;;;;;;;0.00;0.00;;;20.00;62.80;;;;;;5050547;28;20694;-68
2022/06/22 10:07:36;;;;;;;0.10;0.10;;;20.10;62.20;;;;;;5046786;28;20047;-69
2022/06/22 10:10:31;;;;;;;0.00;0.00;;;20.20;62.20;;;;;;5049915;28;20049;-67
2022/06/22 10:13:11;;;;;;;0.00;0.00;;;20.30;62.40;;;;;;5049453;28;20526;-69
2022/06/22 10:16:06;;;;;;;0.00;0.00;;;20.40;61.10;;;;;;5047260;28;20124;-70
2022/06/22 10:18:38;;;;;;;0.00;0.00;;;20.40;62.00;;;;;;5048758;28;20043;-69
2022/06/22 10:21:17;;;;;;;0.00;0.00;;;20.50;61.90;;;;;;5049286;28;20512;-68
2022/06/22 10:24:04;;;;;;;0.00;0.00;;;20.50;61.70;;;;;;5050128;28;20116;-66
2022/06/22 10:26:35;;;;;;;0.00;0.00;;;20.50;60.30;;;;;;5049299;28;20500;-67
2022/06/22 10:29:38;;;;;;;0.00;0.00;;;20.50;60.50;;;;;;5049631;28;20500;-66
2022/06/22 10:32:07;;;;;;;0.00;0.00;;;20.60;58.90;;;;;;5047470;28;20037;-67
2022/06/22 10:34:42;;;;;;;0.00;0.00;;;20.60;57.50;;;;;;5049147;28;20044;-66
2022/06/22 10:37:34;;;;;;;0.00;0.00;;;20.70;59.70;;;;;;5045238;28;20162;-67
2022/06/22 10:40:08;;;;;;;0.00;0.00;;;20.80;60.20;;;;;;5049270;28;20041;-68
2022/06/22 10:45:49;;;;;;;0.00;0.00;;;21.00;59.40;;;;;;5048078;28;20087;-68
2022/06/22 10:48:43;;;;;;;0.40;0.40;;;21.10;57.90;;;;;;5049826;28;20087;-68
2022/06/22 10:51:27;;;;;;;0.00;0.00;;;21.10;56.60;;;;;;5043000;28;20059;-66
2022/06/22 10:54:14;;;;;;;0.00;0.00;;;21.10;56.00;;;;;;5037197;28;20045;-65
2022/06/22 10:57:00;;;;;;;0.00;0.00;;;21.20;58.00;;;;;;5050186;28;20061;-65
2022/06/22 10:59:47;;;;;;;0.00;0.00;;;21.20;57.80;;;;;;5050186;28;20043;-65
2022/06/22 11:02:50;;;;;;;0.00;0.00;;;21.30;57.30;;;;;;5050351;28;20119;-65
2022/06/22 11:05:36;;;;;;;0.00;0.00;;;21.30;58.20;;;;;;5050326;28;20037;-65
2022/06/22 11:08:21;;;;;;;0.00;0.00;;;21.30;58.10;;;;;;5049439;28;20108;-65
2022/06/22 11:11:11;;;;;;;0.00;0.00;;;21.50;59.20;;;;;;5048657;28;20059;-65
2022/06/22 11:14:01;;;;;;;0.00;0.00;;;21.40;58.00;;;;;;5049538;28;20440;-65
2022/06/22 11:16:37;;;;;;;0.00;0.00;;;21.50;57.20;;;;;;5049763;28;20048;-65
2022/06/22 11:19:29;;;;;;;2.08;1.00;;;21.60;57.90;;;;;;5049769;28;20033;-65
2022/06/22 11:22:16;;;;;;;0.00;0.00;;;21.70;57.90;;;;;;5046577;28;20090;-65
2022/06/22 11:25:06;;;;;;;0.00;0.00;;;21.80;58.50;;;;;;5049435;28;20041;-65
2022/06/22 11:30:52;;;;;;;0.00;0.00;;;22.10;58.50;;;;;;5038483;28;20399;-65
2022/06/22 11:33:44;;;;;;;0.00;0.00;;;22.20;57.50;;;;;;5034582;28;20056;-66
2022/06/22 11:36:43;;;;;;;0.00;0.00;;;22.30;56.90;;;;;;5041761;28;20110;-65
2022/06/22 11:39:32;;;;;;;0.00;0.00;;;22.40;57.70;;;;;;5033118;28;20037;-65
2022/06/22 11:42:00;;;;;;;0.00;0.00;;;22.40;56.90;;;;;;5049700;28;20045;-66
2022/06/22 11:45:49;;;;;;;0.00;0.00;;;22.50;57.90;;;;;;5049259;28;20037;-64
2022/06/22 11:47:53;;;;;;;0.38;0.32;;;22.50;57.70;;;;;;5048633;28;20045;-71
2022/06/22 11:50:39;;;;;;;0.00;0.00;;;22.70;58.30;;;;;;5046965;28;20045;-65
2022/06/22 11:53:32;;;;;;;0.00;0.00;;;22.80;58.10;;;;;;5037381;28;20037;-65
2022/06/22 11:56:03;;;;;;;0.00;0.00;;;22.90;57.20;;;;;;5048753;28;20049;-67
2022/06/22 11:58:59;;;;;;;0.03;0.03;;;22.90;58.30;;;;;;5031845;28;20045;-67
2022/06/22 12:01:51;;;;;;;0.00;0.00;;;22.90;56.50;;;;;;5046366;28;20049;-67
2022/06/22 12:04:29;;;;;;;0.00;0.00;;;22.80;55.40;;;;;;5047404;28;20052;-64
2022/06/22 12:07:32;;;;;;;0.00;0.00;;;22.80;55.80;;;;;;5044748;28;20574;-64
2022/06/22 12:10:21;;;;;;;0.00;0.00;;;22.70;56.20;;;;;;5047337;28;20057;-65
2022/06/22 12:12:53;;;;;;;0.00;0.00;;;22.80;55.00;;;;;;5042696;28;20057;-68
2022/06/22 12:15:50;;;;;;;0.00;0.00;;;22.90;55.00;;;;;;5045389;28;20080;-64
2022/06/22 12:18:39;;;;;;;4.38;0.38;;;23.00;55.70;;;;;;5047859;28;20041;-64
2022/06/22 12:21:35;;;;;;;0.00;0.00;;;23.20;54.40;;;;;;5048919;28;20116;-64
2022/06/22 12:24:21;;;;;;;0.00;0.00;;;23.40;54.80;;;;;;5047634;28;20072;-65
2022/06/22 12:27:18;;;;;;;0.00;0.00;;;23.50;53.20;;;;;;5044076;28;20163;-64
2022/06/22 12:30:21;;;;;;;0.10;0.10;;;23.50;53.20;;;;;;5028813;28;20041;-64
2022/06/22 12:33:01;;;;;;;0.00;0.00;;;23.50;52.80;;;;;;5048533;28;20037;-64
2022/06/22 12:36:08;;;;;;;0.00;0.00;;;23.50;54.20;;;;;;5041795;28;20490;-64
2022/06/22 12:38:43;;;;;;;0.00;0.00;;;23.60;54.70;;;;;;5029110;28;20056;-64
2022/06/22 12:41:32;;;;;;;0.00;0.00;;;23.60;51.60;;;;;;5045802;28;20080;-64
2022/06/22 12:44:18;;;;;;;0.00;0.00;;;23.60;50.10;;;;;;5048772;28;20259;-64
2022/06/22 12:47:19;;;;;;;0.00;0.00;;;23.60;53.10;;;;;;5029063;28;20532;-64
2022/06/22 12:50:18;;;;;;;0.00;0.00;;;23.60;52.80;;;;;;5048537;28;20573;-64
2022/06/22 12:52:58;;;;;;;0.00;0.00;;;23.70;52.60;;;;;;5050961;28;20057;-65
2022/06/22 12:55:29;;;;;;;0.00;0.00;;;23.80;53.80;;;;;;5031595;28;20045;-64
2022/06/22 12:58:17;;;;;;;0.00;0.00;;;23.90;54.60;;;;;;5042980;28;20033;-65
2022/06/22 13:00:43;;;;;;;0.00;0.00;;;24.00;53.90;;;;;;5035025;28;20040;-64
2022/06/22 13:03:20;;;;;;;0.10;0.10;;;24.10;53.90;;;;;;5052307;28;20069;-64
2022/06/22 13:05:46;;;;;;;0.00;0.00;;;24.10;52.90;;;;;;5052413;28;20131;-64
2022/06/22 13:08:21;;;;;;;0.00;0.00;;;24.30;53.20;;;;;;5052016;28;20075;-65
2022/06/22 13:10:51;;;;;;;0.00;0.00;;;24.40;53.30;;;;;;5052076;28;20057;-64
2022/06/22 13:13:45;;;;;;;0.00;0.00;;;24.50;53.20;;;;;;5051859;28;20414;-64
2022/06/22 13:16:19;;;;;;;0.05;0.05;;;24.40;53.10;;;;;;5050141;28;20497;-64
2022/06/22 13:19:10;;;;;;;0.00;0.00;;;24.40;52.50;;;;;;5045780;28;20033;-64
2022/06/22 13:22:14;;;;;;;0.00;0.00;;;24.40;52.20;;;;;;5039104;28;20048;-64
2022/06/22 13:25:12;;;;;;;0.03;0.03;;;24.40;51.70;;;;;;5049682;28;20464;-64
2022/06/22 13:27:57;;;;;;;0.00;0.00;;;24.50;52.70;;;;;;5050380;28;20041;-64
2022/06/22 13:30:37;;;;;;;0.00;0.00;;;24.60;51.90;;;;;;5045831;28;20117;-64
2022/06/22 13:33:22;;;;;;;0.00;0.00;;;24.70;52.30;;;;;;5049130;28;20044;-66
2022/06/22 13:36:01;;;;;;;0.00;0.00;;;24.60;50.00;;;;;;5066994;28;20179;-69
2022/06/22 13:39:05;;;;;;;0.00;0.00;;;24.70;51.40;;;;;;5051541;28;20041;-67
2022/06/22 13:41:56;;;;;;;0.00;0.00;;;24.70;51.00;;;;;;5051166;28;20056;-66
2022/06/22 13:44:46;;;;;;;0.00;0.00;;;24.80;51.70;;;;;;5051453;28;20122;-67
2022/06/22 13:47:20;;;;;;;0.00;0.00;;;24.90;52.40;;;;;;5050726;28;20053;-67
2022/06/22 13:50:27;;;;;;;0.52;0.52;;;25.00;52.80;;;;;;5050154;28;20048;-66
2022/06/22 13:52:54;;;;;;;0.52;0.45;;;24.90;53.00;;;;;;5048800;28;20076;-68
2022/06/22 13:55:40;;;;;;;0.03;0.03;;;25.00;52.70;;;;;;5047383;28;20529;-67
2022/06/22 13:58:18;;;;;;;0.00;0.00;;;25.00;53.00;;;;;;5046086;28;20049;-67
2022/06/22 14:01:18;;;;;;;0.00;0.00;;;25.00;54.30;;;;;;5043250;28;20497;-67
2022/06/22 14:03:49;;;;;;;0.52;0.38;;;25.00;54.10;;;;;;5051068;28;20049;-67
2022/06/22 14:06:33;;;;;;;0.00;0.00;;;24.80;54.30;;;;;;5051140;28;20110;-67
2022/06/22 14:09:31;;;;;;;0.00;0.00;;;24.50;54.40;;;;;;5048240;28;20044;-67
2022/06/22 14:12:22;;;;;;;1.23;0.75;;;24.40;55.10;;;;;;5037259;28;20408;-67
2022/06/22 14:14:59;;;;;;;0.20;0.20;;;24.30;55.10;;;;;;5043622;28;20119;-68